Cape Neddick, Maine
Current Conditions -  °F | °C
As of 7:58 PM on Saturday 20 Dec 2014 (Local Time) from KPSM Reporting Station
Overcast Overcast  
Wind Chill: 26°   Ceiling: 3400
Heat Index: 31°   Visibility: 10mi
Dew Point: 22°   Wind: 5mph
Humidity: 70%   Direction: 20°NNE
Pressure: 30.33"   Gusts: NA
Location:  43.17°N, 70.62°W
Report Text: KPSM 210058Z 02004KT 10SM OVC034 00/M05 A3033 RMK AO2A SLP275 T10051054
Loading
Personal Weather Stations






























Interactive Weather Map New forecast layout! Learn more

10-Day Weather Forecast

Advertisements
Track Severe Weather on mobile